Time;durP1;ratioP1;P1;durP2;ratioP2;P2;SDS_P1;SDS_P2;PMS_P1;PMS_P2;Temp;Humidity;BMP_temperature;BMP_pressure;BME280_temperature;BME280_humidity;BME280_pressure;Samples;Min_cycle;Max_cycle;Signal;HPM_P1;HPM_P2
2023/11/08 00:01:57;;;;;;;8.05;6.18;;;9.50;99.90;;;;;;5021492;28;20280;-84
2023/11/08 00:04:24;;;;;;;9.05;6.57;;;9.50;99.90;;;;;;5016932;28;20218;-83
2023/11/08 00:06:51;;;;;;;7.65;6.68;;;9.50;99.90;;;;;;5014247;28;20229;-83
2023/11/08 00:09:18;;;;;;;10.85;7.35;;;9.40;99.90;;;;;;5007463;28;20222;-84
2023/11/08 00:11:44;;;;;;;8.50;7.55;;;9.40;99.90;;;;;;5011995;28;20217;-84
2023/11/08 00:14:13;;;;;;;10.05;8.73;;;9.50;99.90;;;;;;5003581;28;20197;-84
2023/11/08 00:16:39;;;;;;;6.88;6.18;;;9.60;99.90;;;;;;5009081;28;20201;-85
2023/11/08 00:19:07;;;;;;;8.82;7.20;;;9.50;99.90;;;;;;5008924;28;20252;-85
2023/11/08 00:21:35;;;;;;;10.57;7.32;;;9.60;99.90;;;;;;4993777;28;20568;-84
2023/11/08 00:24:02;;;;;;;12.43;8.35;;;9.50;99.90;;;;;;5011119;28;20221;-85
2023/11/08 00:26:29;;;;;;;10.35;7.95;;;9.50;99.90;;;;;;5011579;28;20197;-85
2023/11/08 00:28:56;;;;;;;15.13;8.70;;;9.60;99.90;;;;;;5011668;28;20218;-84
2023/11/08 00:31:24;;;;;;;11.40;8.98;;;9.50;99.90;;;;;;5008597;28;20255;-85
2023/11/08 00:33:52;;;;;;;15.82;9.60;;;9.40;99.90;;;;;;5002342;28;20205;-85
2023/11/08 00:36:20;;;;;;;10.13;8.02;;;9.30;99.90;;;;;;5003319;28;20217;-85
2023/11/08 00:38:47;;;;;;;10.07;8.65;;;9.30;99.90;;;;;;5014138;28;20244;-85
2023/11/08 00:41:14;;;;;;;11.10;8.43;;;9.30;99.90;;;;;;5004922;28;20202;-84
2023/11/08 00:43:42;;;;;;;12.30;9.10;;;9.30;99.90;;;;;;5013011;28;20269;-85
2023/11/08 00:46:09;;;;;;;14.25;10.00;;;9.30;99.90;;;;;;5006135;28;20210;-85
2023/11/08 00:48:38;;;;;;;11.38;10.18;;;9.30;99.90;;;;;;5019063;28;20236;-84
2023/11/08 00:51:05;;;;;;;11.68;9.45;;;9.30;99.90;;;;;;5011475;28;20197;-83
2023/11/08 00:53:32;;;;;;;10.23;8.55;;;9.30;99.90;;;;;;5013035;28;20205;-85
2023/11/08 00:55:59;;;;;;;12.57;9.40;;;9.20;99.90;;;;;;5015327;28;20320;-85
2023/11/08 00:58:27;;;;;;;12.90;9.55;;;9.20;99.90;;;;;;5011977;28;20285;-85
2023/11/08 01:00:54;;;;;;;12.90;10.05;;;9.10;99.90;;;;;;5006830;28;20198;-84
2023/11/08 01:03:20;;;;;;;13.32;10.75;;;9.00;99.90;;;;;;5006909;28;20269;-86
2023/11/08 01:05:49;;;;;;;14.73;10.40;;;9.00;99.90;;;;;;5005610;28;20309;-85
2023/11/08 01:08:16;;;;;;;14.82;11.65;;;9.00;99.90;;;;;;5011142;28;20362;-85
2023/11/08 01:10:43;;;;;;;14.65;11.05;;;8.90;99.90;;;;;;5011633;28;20224;-85
2023/11/08 01:13:12;;;;;;;17.08;12.38;;;8.90;99.90;;;;;;5009591;28;20198;-83
2023/11/08 01:15:39;;;;;;;12.23;11.02;;;9.10;99.90;;;;;;5010360;28;20194;-85
2023/11/08 01:18:06;;;;;;;14.77;11.35;;;8.90;99.90;;;;;;5003035;28;20224;-84
2023/11/08 01:20:33;;;;;;;18.77;13.00;;;8.90;99.90;;;;;;5008469;28;20202;-84
2023/11/08 01:23:02;;;;;;;15.07;12.27;;;8.90;99.90;;;;;;5002938;28;20233;-86
2023/11/08 01:25:29;;;;;;;15.27;12.18;;;8.90;99.90;;;;;;4996439;28;20633;-83
2023/11/08 01:27:55;;;;;;;15.50;11.80;;;8.90;99.90;;;;;;5003014;28;20217;-84
2023/11/08 01:30:22;;;;;;;17.00;12.02;;;9.00;99.90;;;;;;4995720;28;20251;-83
2023/11/08 01:32:50;;;;;;;15.68;11.70;;;8.80;99.90;;;;;;4993083;28;20202;-85
2023/11/08 01:35:18;;;;;;;13.07;11.30;;;8.80;99.90;;;;;;5002636;28;20284;-84
2023/11/08 01:37:45;;;;;;;17.00;11.65;;;8.80;99.90;;;;;;4990484;28;20205;-84
2023/11/08 01:40:14;;;;;;;12.85;11.55;;;8.90;99.90;;;;;;5007156;28;20259;-84
2023/11/08 01:42:41;;;;;;;15.95;11.88;;;8.80;99.90;;;;;;4992270;28;20206;-84
2023/11/08 01:45:09;;;;;;;16.08;12.23;;;8.80;99.90;;;;;;4998557;28;20222;-84
2023/11/08 01:47:36;;;;;;;15.60;11.45;;;8.80;99.90;;;;;;5005218;28;20635;-85
2023/11/08 01:50:04;;;;;;;17.55;12.55;;;8.80;99.90;;;;;;4991007;28;20199;-84
2023/11/08 01:52:31;;;;;;;17.27;12.40;;;8.80;99.90;;;;;;5001783;28;20205;-84
2023/11/08 01:54:58;;;;;;;13.57;11.75;;;8.80;99.90;;;;;;5001973;28;20204;-84
2023/11/08 01:57:29;;;;;;;12.07;10.48;;;8.70;99.90;;;;;;4997062;28;20198;-84
2023/11/08 01:59:57;;;;;;;16.10;11.27;;;8.80;99.90;;;;;;5004446;28;20288;-86
2023/11/08 02:02:25;;;;;;;14.75;11.45;;;8.90;99.90;;;;;;5005605;28;20204;-83
2023/11/08 02:04:53;;;;;;;13.55;12.00;;;8.90;99.90;;;;;;4998218;28;20222;-83
2023/11/08 02:07:21;;;;;;;12.48;10.35;;;8.70;99.90;;;;;;5010829;28;20211;-83
2023/11/08 02:09:49;;;;;;;12.98;10.57;;;8.70;99.90;;;;;;5015978;28;20298;-83
2023/11/08 02:12:16;;;;;;;10.27;9.18;;;8.80;99.90;;;;;;5009574;28;20202;-83
2023/11/08 02:15:05;;;;;;;10.18;9.15;;;8.80;99.90;;;;;;5011674;28;20309;-84
2023/11/08 02:17:32;;;;;;;10.10;8.45;;;8.80;99.90;;;;;;4995774;28;20209;-84
2023/11/08 02:19:59;;;;;;;10.35;8.93;;;8.80;99.90;;;;;;5002666;28;20206;-84
2023/11/08 02:22:26;;;;;;;9.38;8.27;;;8.90;99.90;;;;;;5002251;28;20205;-84
2023/11/08 02:24:54;;;;;;;11.32;9.68;;;8.90;99.90;;;;;;5004045;28;20227;-84
2023/11/08 02:27:21;;;;;;;9.75;8.60;;;8.90;99.90;;;;;;5004589;28;20230;-85
2023/11/08 02:29:48;;;;;;;11.20;9.05;;;8.90;99.90;;;;;;4999071;28;20605;-84
2023/11/08 02:32:15;;;;;;;12.25;10.98;;;8.90;99.90;;;;;;4999336;28;20284;-85
2023/11/08 02:34:42;;;;;;;16.25;10.75;;;8.90;99.90;;;;;;5004249;28;20288;-84
2023/11/08 02:37:10;;;;;;;12.13;10.93;;;8.90;99.90;;;;;;4995224;28;20213;-83
2023/11/08 02:39:37;;;;;;;11.25;9.82;;;8.90;99.90;;;;;;5007775;28;20238;-84
2023/11/08 02:42:05;;;;;;;13.02;11.43;;;8.90;99.90;;;;;;4993999;28;20298;-85
2023/11/08 02:44:32;;;;;;;11.55;10.10;;;8.90;99.90;;;;;;4992814;28;20209;-84
2023/11/08 02:46:59;;;;;;;11.32;10.13;;;8.90;99.90;;;;;;5007262;28;20236;-85
2023/11/08 02:49:30;;;;;;;10.18;9.15;;;9.00;99.90;;;;;;4991755;28;20724;-85
2023/11/08 02:51:57;;;;;;;12.25;10.15;;;8.90;99.90;;;;;;5003044;28;20192;-85
2023/11/08 02:54:25;;;;;;;18.00;10.13;;;8.90;99.90;;;;;;5001680;28;20210;-85
2023/11/08 02:56:52;;;;;;;11.93;10.25;;;8.90;99.90;;;;;;4999835;28;20213;-85
2023/11/08 02:59:21;;;;;;;11.57;9.95;;;8.80;99.90;;;;;;4992619;28;20221;-85
2023/11/08 03:01:48;;;;;;;13.98;10.10;;;8.80;99.90;;;;;;5003512;28;20301;-85
2023/11/08 03:04:15;;;;;;;13.05;11.40;;;8.90;99.90;;;;;;5007262;28;20572;-85
2023/11/08 03:06:44;;;;;;;12.27;10.80;;;8.90;99.90;;;;;;5000508;28;20264;-85
2023/11/08 03:09:11;;;;;;;13.55;11.85;;;8.90;99.90;;;;;;5007851;28;20208;-83
2023/11/08 03:11:39;;;;;;;14.20;11.55;;;8.90;99.90;;;;;;5020553;28;20211;-83
2023/11/08 03:14:06;;;;;;;16.55;11.88;;;9.00;99.90;;;;;;4996740;28;20202;-84
2023/11/08 03:16:35;;;;;;;14.80;11.98;;;8.90;99.90;;;;;;5003885;28;20201;-85
2023/11/08 03:19:02;;;;;;;17.52;12.40;;;8.90;99.90;;;;;;5001355;28;20226;-84
2023/11/08 03:21:29;;;;;;;16.90;12.23;;;8.90;99.90;;;;;;5003984;28;20217;-84
2023/11/08 03:23:58;;;;;;;14.40;11.73;;;8.90;99.90;;;;;;5002277;28;20265;-84
2023/11/08 03:26:24;;;;;;;15.43;12.90;;;8.90;99.90;;;;;;5008293;28;20308;-84
2023/11/08 03:28:51;;;;;;;14.50;12.70;;;8.80;99.90;;;;;;5007341;28;20232;-85
2023/11/08 03:31:18;;;;;;;14.63;13.13;;;8.80;99.90;;;;;;5012384;28;20237;-84
2023/11/08 03:33:46;;;;;;;14.88;13.13;;;8.80;99.90;;;;;;5001811;28;20205;-84
2023/11/08 03:36:13;;;;;;;23.40;13.90;;;8.80;99.90;;;;;;5011708;28;20207;-85
2023/11/08 03:38:40;;;;;;;15.90;12.00;;;8.90;99.90;;;;;;5003890;28;20248;-84
2023/11/08 03:41:07;;;;;;;14.65;12.15;;;8.90;99.90;;;;;;5009005;28;20213;-85
2023/11/08 03:43:34;;;;;;;21.30;13.00;;;8.90;99.90;;;;;;5022305;28;20228;-85
2023/11/08 03:46:01;;;;;;;14.75;11.55;;;8.90;99.90;;;;;;5014392;28;20263;-84
2023/11/08 03:48:29;;;;;;;13.88;11.70;;;8.90;99.90;;;;;;5004000;28;20225;-85
2023/11/08 03:50:57;;;;;;;16.48;11.05;;;8.90;99.90;;;;;;5014837;28;20220;-84
2023/11/08 03:53:25;;;;;;;13.35;11.40;;;9.00;99.90;;;;;;5012708;28;20205;-84
2023/11/08 03:55:51;;;;;;;14.80;11.82;;;9.00;99.90;;;;;;5010443;28;20240;-83
2023/11/08 03:58:18;;;;;;;11.77;10.57;;;9.00;99.90;;;;;;4998972;28;20409;-81
2023/11/08 04:00:46;;;;;;;13.82;11.85;;;9.20;99.90;;;;;;4998918;28;20209;-83
2023/11/08 04:03:14;;;;;;;16.13;11.68;;;9.10;99.90;;;;;;4997915;28;20202;-83
2023/11/08 04:05:40;;;;;;;17.05;11.25;;;9.10;99.90;;;;;;4999248;28;20230;-85
2023/11/08 04:08:09;;;;;;;12.10;10.30;;;9.20;99.90;;;;;;5016212;28;20316;-84
2023/11/08 04:10:36;;;;;;;16.15;12.52;;;9.20;99.90;;;;;;5036393;28;20189;-84
2023/11/08 04:13:03;;;;;;;12.48;11.18;;;9.20;99.90;;;;;;5038030;28;20181;-83
2023/11/08 04:15:30;;;;;;;14.25;11.07;;;9.20;99.90;;;;;;5028165;28;20213;-83
2023/11/08 04:17:57;;;;;;;14.50;11.77;;;9.30;99.90;;;;;;5018365;28;20206;-83
2023/11/08 04:20:24;;;;;;;13.85;12.40;;;9.30;99.90;;;;;;5018591;28;20179;-83
2023/11/08 04:22:51;;;;;;;15.30;12.35;;;9.30;99.90;;;;;;5018332;28;20255;-84
2023/11/08 04:25:19;;;;;;;14.55;13.05;;;9.30;99.90;;;;;;5018215;28;20233;-83
2023/11/08 04:27:46;;;;;;;16.65;12.57;;;9.30;99.90;;;;;;5021858;28;20218;-82
2023/11/08 04:30:13;;;;;;;20.00;15.38;;;9.30;99.90;;;;;;5020883;28;20224;-82
2023/11/08 04:32:43;;;;;;;12.77;11.38;;;9.20;99.90;;;;;;5026113;28;20261;-83
2023/11/08 04:35:10;;;;;;;19.15;14.10;;;9.30;99.90;;;;;;5016373;28;20194;-83
2023/11/08 04:37:37;;;;;;;20.48;16.27;;;9.30;99.90;;;;;;5025858;28;20221;-83
2023/11/08 04:40:05;;;;;;;23.13;16.90;;;9.30;99.90;;;;;;5016608;28;20202;-83
2023/11/08 04:42:34;;;;;;;19.20;15.88;;;9.30;99.90;;;;;;5006268;28;20206;-84
2023/11/08 04:45:01;;;;;;;20.25;15.88;;;9.20;99.90;;;;;;5011067;28;20259;-84
2023/11/08 04:47:28;;;;;;;21.85;17.77;;;9.20;99.90;;;;;;5015611;28;20198;-84
2023/11/08 04:49:54;;;;;;;21.58;16.35;;;9.10;99.90;;;;;;5005008;28;20269;-84
2023/11/08 04:52:22;;;;;;;18.45;15.85;;;9.20;99.90;;;;;;4999280;28;20258;-84
2023/11/08 04:54:50;;;;;;;21.15;16.65;;;9.10;99.90;;;;;;5000825;28;20200;-84
2023/11/08 04:57:17;;;;;;;25.50;16.58;;;9.00;99.90;;;;;;5009653;28;20198;-83
2023/11/08 04:59:46;;;;;;;19.98;17.50;;;9.10;99.90;;;;;;5009141;28;20225;-85
2023/11/08 05:02:15;;;;;;;25.25;17.83;;;9.10;99.90;;;;;;5009693;28;20209;-83
2023/11/08 05:04:42;;;;;;;20.55;16.92;;;9.10;99.90;;;;;;5020254;28;20190;-84
2023/11/08 05:07:09;;;;;;;21.42;18.38;;;9.10;99.90;;;;;;4997218;28;20222;-85
2023/11/08 05:09:38;;;;;;;19.52;17.42;;;9.10;99.90;;;;;;5009924;28;20291;-85
2023/11/08 05:12:06;;;;;;;20.88;15.40;;;9.00;99.90;;;;;;5006007;28;20213;-85
2023/11/08 05:14:33;;;;;;;19.65;15.70;;;9.00;99.90;;;;;;4997565;28;20297;-83
2023/11/08 05:17:01;;;;;;;15.15;13.55;;;9.00;99.90;;;;;;5007304;28;20209;-83
2023/11/08 05:19:28;;;;;;;19.52;15.45;;;9.10;99.90;;;;;;5002561;28;20229;-83
2023/11/08 05:21:55;;;;;;;17.73;15.00;;;9.10;99.90;;;;;;5003133;28;20228;-82
2023/11/08 05:24:22;;;;;;;21.63;15.85;;;9.00;99.90;;;;;;5021691;28;20221;-83
2023/11/08 05:26:50;;;;;;;21.73;17.52;;;9.00;99.90;;;;;;5011662;28;20222;-84
2023/11/08 05:29:17;;;;;;;18.58;16.58;;;9.00;99.90;;;;;;5013690;28;20229;-85
2023/11/08 05:31:44;;;;;;;22.17;18.15;;;9.00;99.90;;;;;;5012155;28;20212;-85
2023/11/08 05:34:12;;;;;;;22.35;18.95;;;9.00;99.90;;;;;;5015959;28;20252;-83
2023/11/08 05:36:39;;;;;;;23.50;19.75;;;9.00;99.90;;;;;;5007050;28;20208;-84
2023/11/08 05:39:05;;;;;;;24.67;17.85;;;9.00;99.90;;;;;;5010718;28;20690;-84
2023/11/08 05:41:32;;;;;;;24.00;20.95;;;9.00;99.90;;;;;;5011650;28;20244;-85
2023/11/08 05:43:59;;;;;;;25.08;20.80;;;8.90;99.90;;;;;;5005584;28;20221;-84
2023/11/08 05:46:27;;;;;;;23.17;19.63;;;8.90;99.90;;;;;;5002080;28;20271;-83
2023/11/08 05:48:55;;;;;;;26.10;19.75;;;9.00;99.90;;;;;;5018821;28;20229;-82
2023/11/08 05:51:25;;;;;;;33.00;20.33;;;8.90;99.90;;;;;;5024642;28;20242;-83
2023/11/08 05:53:52;;;;;;;23.17;18.45;;;8.90;99.90;;;;;;5017366;28;20235;-84
2023/11/08 05:56:21;;;;;;;30.05;21.67;;;8.90;99.90;;;;;;5017736;28;20244;-84
2023/11/08 05:58:48;;;;;;;25.05;19.98;;;8.90;99.90;;;;;;5014175;28;20284;-85
2023/11/08 06:01:16;;;;;;;25.40;19.45;;;8.90;99.90;;;;;;5018750;28;20213;-83
2023/11/08 06:03:42;;;;;;;23.33;19.73;;;8.80;99.90;;;;;;5009709;28;20208;-81
2023/11/08 06:06:09;;;;;;;21.25;18.98;;;8.80;99.90;;;;;;5015871;28;20601;-84
2023/11/08 06:08:38;;;;;;;26.88;21.98;;;8.80;99.90;;;;;;5006039;28;20312;-82
2023/11/08 06:11:05;;;;;;;25.38;21.13;;;8.90;99.90;;;;;;5013189;28;20228;-85
2023/11/08 06:13:34;;;;;;;26.80;20.83;;;8.70;99.90;;;;;;5010534;28;20206;-83
2023/11/08 06:16:01;;;;;;;24.25;20.55;;;8.70;99.90;;;;;;5009164;28;20309;-84
2023/11/08 06:18:30;;;;;;;28.48;21.42;;;8.70;99.90;;;;;;5013303;28;20285;-82
2023/11/08 06:20:57;;;;;;;28.27;22.42;;;8.70;99.90;;;;;;5016241;28;20244;-82
2023/11/08 06:23:24;;;;;;;30.52;25.00;;;8.60;99.90;;;;;;4998799;28;20266;-87
2023/11/08 06:25:54;;;;;;;31.77;22.40;;;8.60;99.90;;;;;;5009212;28;20231;-86
2023/11/08 06:28:21;;;;;;;31.15;22.15;;;8.60;99.90;;;;;;5014723;28;20245;-85
2023/11/08 06:30:48;;;;;;;31.88;21.67;;;8.60;99.90;;;;;;5017594;28;20221;-83
2023/11/08 06:33:15;;;;;;;24.10;21.48;;;8.70;99.90;;;;;;5023539;28;20240;-85
2023/11/08 06:35:42;;;;;;;27.40;18.98;;;8.80;99.90;;;;;;5017052;28;20186;-85
2023/11/08 06:38:09;;;;;;;25.73;20.48;;;8.70;99.90;;;;;;5016468;28;20240;-85
2023/11/08 06:40:56;;;;;;;28.10;19.80;;;8.80;99.90;;;;;;5016371;28;20209;-86
2023/11/08 06:43:30;;;;;;;24.08;18.35;;;8.80;99.90;;;;;;5015047;28;20211;-84
2023/11/08 06:45:57;;;;;;;29.40;19.83;;;8.90;99.90;;;;;;5015782;28;20221;-85
2023/11/08 06:48:27;;;;;;;23.92;18.85;;;8.80;99.90;;;;;;5013170;28;20279;-85
2023/11/08 06:50:54;;;;;;;26.35;18.88;;;8.90;99.90;;;;;;5020888;28;20205;-84
2023/11/08 06:53:22;;;;;;;22.95;20.35;;;8.80;99.90;;;;;;5007741;28;20269;-84
2023/11/08 06:55:49;;;;;;;22.90;17.73;;;8.80;99.90;;;;;;5006174;28;20217;-86
2023/11/08 06:58:16;;;;;;;19.67;17.58;;;8.80;99.90;;;;;;5013242;28;20273;-84
2023/11/08 07:00:44;;;;;;;21.75;18.65;;;8.80;99.90;;;;;;5015422;28;20282;-84
2023/11/08 07:03:11;;;;;;;24.85;18.15;;;8.90;99.90;;;;;;5014775;28;20225;-83
2023/11/08 07:05:38;;;;;;;23.08;17.90;;;8.90;99.90;;;;;;5012628;28;20326;-85
2023/11/08 07:08:05;;;;;;;23.60;17.15;;;8.90;99.90;;;;;;5018981;28;20224;-84
2023/11/08 07:10:32;;;;;;;27.95;18.80;;;8.90;99.90;;;;;;5031970;28;20232;-83
2023/11/08 07:12:59;;;;;;;22.52;16.73;;;9.00;99.90;;;;;;5013048;28;20248;-81
2023/11/08 07:15:27;;;;;;;22.38;17.58;;;9.00;99.90;;;;;;4997246;28;20234;-81
2023/11/08 07:17:56;;;;;;;22.40;18.58;;;9.00;99.90;;;;;;4991341;28;20225;-79
2023/11/08 07:20:23;;;;;;;20.25;17.55;;;9.00;99.90;;;;;;5003025;28;20465;-80
2023/11/08 07:22:50;;;;;;;25.27;18.70;;;9.10;99.90;;;;;;4992238;28;20284;-79
2023/11/08 07:25:17;;;;;;;23.35;19.45;;;9.20;99.90;;;;;;4996003;28;20202;-81
2023/11/08 07:27:44;;;;;;;23.63;17.30;;;9.20;99.90;;;;;;5002782;28;20873;-80
2023/11/08 07:30:11;;;;;;;23.10;16.80;;;9.20;99.90;;;;;;4997801;28;20293;-81
2023/11/08 07:32:39;;;;;;;19.83;16.75;;;9.20;99.90;;;;;;4998063;28;20281;-80
2023/11/08 07:35:08;;;;;;;19.77;16.45;;;9.30;99.90;;;;;;5000358;28;20198;-79
2023/11/08 07:37:39;;;;;;;19.10;14.55;;;9.40;99.90;;;;;;5007031;28;20197;-79
2023/11/08 07:40:11;;;;;;;18.90;14.70;;;9.40;99.90;;;;;;5005821;28;20225;-81
2023/11/08 07:42:39;;;;;;;20.10;14.57;;;9.30;99.90;;;;;;5009315;28;20240;-82
2023/11/08 07:45:06;;;;;;;20.60;14.80;;;9.40;99.90;;;;;;4999968;28;20210;-83
2023/11/08 07:47:33;;;;;;;19.15;16.67;;;9.40;99.90;;;;;;5010017;28;20214;-84
2023/11/08 07:50:00;;;;;;;20.40;15.85;;;9.40;99.90;;;;;;5003510;28;20243;-83
2023/11/08 07:52:29;;;;;;;22.77;16.05;;;9.40;99.90;;;;;;5002785;28;20220;-84
2023/11/08 07:54:56;;;;;;;19.75;15.27;;;9.40;99.90;;;;;;4999691;28;20193;-85
2023/11/08 07:57:23;;;;;;;23.90;17.77;;;9.50;99.90;;;;;;5015279;28;20269;-84
2023/11/08 07:59:50;;;;;;;24.17;16.42;;;9.40;99.90;;;;;;5006747;28;20244;-85
2023/11/08 08:02:17;;;;;;;20.08;15.25;;;9.40;99.90;;;;;;5003955;28;20219;-84
2023/11/08 08:04:45;;;;;;;17.77;15.88;;;9.50;99.90;;;;;;4999863;28;20208;-86
2023/11/08 08:07:12;;;;;;;23.52;15.65;;;9.50;99.90;;;;;;5012727;28;20221;-84
2023/11/08 08:09:40;;;;;;;23.33;16.35;;;9.50;99.90;;;;;;5008973;28;20260;-85
2023/11/08 08:12:07;;;;;;;24.23;16.90;;;9.50;99.90;;;;;;5012198;28;20297;-81
2023/11/08 08:14:37;;;;;;;25.35;16.30;;;9.60;99.90;;;;;;4996298;28;20500;-84
2023/11/08 08:17:04;;;;;;;27.30;19.02;;;9.60;99.90;;;;;;5003058;28;20681;-85
2023/11/08 08:19:32;;;;;;;21.38;16.80;;;9.60;99.90;;;;;;4998161;28;20319;-86
2023/11/08 08:22:01;;;;;;;24.00;18.25;;;9.70;99.90;;;;;;4996078;28;20582;-83
2023/11/08 08:24:28;;;;;;;24.08;19.90;;;9.70;99.90;;;;;;5001256;28;20233;-84
2023/11/08 08:26:58;;;;;;;24.88;19.13;;;9.70;99.90;;;;;;5000163;28;20652;-85
2023/11/08 08:29:26;;;;;;;25.20;19.60;;;9.80;99.90;;;;;;5011329;28;20232;-85
2023/11/08 08:31:55;;;;;;;24.10;18.55;;;9.80;99.90;;;;;;5001670;28;20202;-86
2023/11/08 08:34:21;;;;;;;30.48;18.23;;;9.70;99.90;;;;;;5007346;28;20233;-84
2023/11/08 08:36:48;;;;;;;26.58;20.60;;;9.70;99.90;;;;;;5005971;28;20194;-85
2023/11/08 08:39:15;;;;;;;25.48;19.50;;;9.80;99.90;;;;;;5009136;28;20312;-79
2023/11/08 08:41:44;;;;;;;22.77;18.40;;;9.90;99.90;;;;;;5002309;28;20683;-82
2023/11/08 08:44:12;;;;;;;23.50;17.83;;;9.90;99.90;;;;;;5006900;28;20200;-80
2023/11/08 08:46:39;;;;;;;23.13;17.80;;;10.00;99.90;;;;;;5006978;28;20692;-80
2023/11/08 08:49:06;;;;;;;21.70;17.00;;;10.10;99.90;;;;;;4999752;28;20230;-80
2023/11/08 08:51:33;;;;;;;28.38;19.08;;;10.10;99.90;;;;;;4998408;28;20213;-79
2023/11/08 08:54:00;;;;;;;23.33;17.35;;;10.10;99.90;;;;;;5001941;28;20274;-80
2023/11/08 08:56:28;;;;;;;21.60;16.50;;;10.10;99.90;;;;;;5009053;28;20285;-79
2023/11/08 08:58:54;;;;;;;28.45;19.15;;;10.10;99.90;;;;;;5005582;28;20233;-79
2023/11/08 09:01:22;;;;;;;23.02;18.17;;;10.20;99.90;;;;;;5006424;28;20206;-80
2023/11/08 09:03:50;;;;;;;19.73;16.33;;;10.20;99.90;;;;;;5012728;28;20198;-79
2023/11/08 09:06:18;;;;;;;20.20;14.88;;;10.30;99.90;;;;;;5003676;28;20225;-78
2023/11/08 09:08:45;;;;;;;28.27;17.20;;;10.30;99.90;;;;;;5007226;28;20232;-80
2023/11/08 09:11:12;;;;;;;24.40;16.92;;;10.40;99.90;;;;;;5010990;28;20273;-78
2023/11/08 09:13:39;;;;;;;18.17;14.30;;;10.50;99.90;;;;;;5018132;28;20269;-81
2023/11/08 09:16:07;;;;;;;18.38;13.45;;;10.90;99.90;;;;;;5016517;28;20222;-79
2023/11/08 09:18:35;;;;;;;20.77;12.73;;;11.40;99.90;;;;;;5004868;28;20225;-78
2023/11/08 09:21:03;;;;;;;16.85;13.07;;;12.00;99.90;;;;;;4997388;28;20211;-79
2023/11/08 09:23:31;;;;;;;15.02;11.00;;;12.60;99.90;;;;;;5011950;28;20944;-79
2023/11/08 09:25:58;;;;;;;14.38;12.75;;;13.00;99.90;;;;;;5014729;28;20222;-80
2023/11/08 09:28:25;;;;;;;18.08;11.15;;;13.00;99.90;;;;;;5016497;28;20229;-80
2023/11/08 09:30:52;;;;;;;22.90;12.65;;;13.50;99.90;;;;;;5014774;28;20230;-81
2023/11/08 09:33:19;;;;;;;13.98;12.48;;;13.60;99.90;;;;;;4999937;28;20207;-83
2023/11/08 09:35:47;;;;;;;21.50;14.38;;;13.40;99.90;;;;;;5008334;28;20227;-82
2023/11/08 09:38:15;;;;;;;21.42;15.40;;;13.00;99.90;;;;;;4999214;28;20640;-80
2023/11/08 09:40:42;;;;;;;16.75;13.30;;;12.60;99.90;;;;;;5010542;28;20232;-81
2023/11/08 09:43:09;;;;;;;16.08;13.02;;;12.30;99.90;;;;;;5009853;28;20237;-80
2023/11/08 09:45:38;;;;;;;19.70;11.88;;;12.10;99.90;;;;;;5003146;28;20205;-80
2023/11/08 09:48:05;;;;;;;22.77;11.43;;;12.30;99.90;;;;;;5000538;28;20221;-81
2023/11/08 09:50:32;;;;;;;17.30;12.90;;;12.40;99.90;;;;;;5004235;28;20244;-84
2023/11/08 09:53:01;;;;;;;17.40;12.68;;;12.20;99.90;;;;;;5007937;28;20206;-85
2023/11/08 09:55:28;;;;;;;16.85;11.85;;;11.90;99.90;;;;;;5014648;28;20209;-83
2023/11/08 09:57:57;;;;;;;17.48;12.75;;;11.80;99.90;;;;;;5048602;23;20256;-82
2023/11/08 10:00:26;;;;;;;18.30;11.95;;;12.10;99.90;;;;;;5024284;28;20217;-85
2023/11/08 10:02:54;;;;;;;22.05;11.85;;;12.40;99.90;;;;;;5036718;28;20217;-83
2023/11/08 10:05:22;;;;;;;18.77;11.85;;;12.20;99.90;;;;;;5023184;28;20371;-83
2023/11/08 10:07:49;;;;;;;16.83;11.95;;;12.00;99.90;;;;;;5020226;28;20267;-82
2023/11/08 10:10:17;;;;;;;16.45;11.25;;;12.00;99.90;;;;;;5026078;28;20218;-86
2023/11/08 10:12:45;;;;;;;16.70;12.70;;;12.10;99.90;;;;;;5030612;28;20211;-84
2023/11/08 10:15:12;;;;;;;18.17;12.55;;;12.00;99.90;;;;;;5034062;28;20207;-82
2023/11/08 10:17:40;;;;;;;17.73;13.15;;;12.00;99.90;;;;;;5025598;28;20228;-84
2023/11/08 10:20:10;;;;;;;15.57;10.75;;;11.80;99.90;;;;;;5022797;28;20215;-86
2023/11/08 10:22:37;;;;;;;14.93;10.57;;;11.90;99.90;;;;;;5029176;28;20192;-80
2023/11/08 10:25:08;;;;;;;13.60;10.43;;;11.90;99.90;;;;;;5030683;28;20589;-84
2023/11/08 10:27:36;;;;;;;13.38;9.82;;;12.00;99.90;;;;;;5030305;28;20227;-85
2023/11/08 10:30:15;;;;;;;13.38;9.68;;;12.10;99.90;;;;;;5018835;28;20299;-82
2023/11/08 10:32:43;;;;;;;13.45;11.10;;;12.10;99.90;;;;;;5030843;28;20243;-83
2023/11/08 10:35:15;;;;;;;17.48;10.40;;;12.00;99.90;;;;;;5026559;28;20264;-81
2023/11/08 10:37:42;;;;;;;16.70;10.00;;;11.90;99.90;;;;;;5027329;28;20274;-83
2023/11/08 10:40:12;;;;;;;10.85;8.88;;;11.80;99.90;;;;;;5024796;28;20205;-80
2023/11/08 10:42:41;;;;;;;13.45;11.55;;;11.80;99.90;;;;;;5017170;28;20632;-82
2023/11/08 10:45:10;;;;;;;14.75;10.90;;;11.70;99.90;;;;;;5018143;28;20209;-83
2023/11/08 10:47:37;;;;;;;13.98;10.43;;;11.80;99.90;;;;;;5011099;28;20270;-83
2023/11/08 10:50:05;;;;;;;16.35;9.88;;;11.70;99.90;;;;;;5012482;28;20207;-84
2023/11/08 10:52:33;;;;;;;14.43;9.93;;;11.60;99.90;;;;;;5020213;28;20732;-83
2023/11/08 10:55:01;;;;;;;14.27;9.50;;;11.60;99.90;;;;;;5019603;28;20198;-82
2023/11/08 10:57:30;;;;;;;14.02;9.55;;;11.80;99.90;;;;;;5014976;28;20228;-83
2023/11/08 11:00:01;;;;;;;9.50;7.90;;;11.80;99.90;;;;;;5018814;28;20207;-85
2023/11/08 11:02:34;;;;;;;11.25;8.10;;;11.80;99.90;;;;;;5010366;28;20284;-82
2023/11/08 11:05:04;;;;;;;20.33;9.57;;;11.80;99.90;;;;;;5015061;28;20635;-82
2023/11/08 11:07:32;;;;;;;10.25;7.93;;;11.70;99.90;;;;;;5024656;28;20370;-83
2023/11/08 11:09:59;;;;;;;10.05;7.40;;;11.80;99.90;;;;;;5021874;28;20207;-83
2023/11/08 11:12:36;;;;;;;11.27;6.72;;;11.80;99.90;;;;;;5006849;28;20240;-83
2023/11/08 11:15:11;;;;;;;11.40;7.07;;;11.80;99.90;;;;;;5013807;28;20204;-83
2023/11/08 11:17:45;;;;;;;12.05;8.07;;;11.90;99.90;;;;;;5006585;28;20541;-83
2023/11/08 11:20:16;;;;;;;10.68;8.45;;;12.00;99.90;;;;;;5017653;28;20215;-83
2023/11/08 11:22:43;;;;;;;10.85;6.38;;;12.20;99.90;;;;;;5013593;28;20216;-83
2023/11/08 11:25:13;;;;;;;8.45;7.20;;;12.40;99.90;;;;;;5016732;28;20225;-83
2023/11/08 11:27:46;;;;;;;13.82;7.38;;;12.50;99.90;;;;;;5018898;28;20221;-80
2023/11/08 11:30:27;;;;;;;10.88;6.75;;;12.70;99.90;;;;;;5014847;28;20198;-80
2023/11/08 11:32:56;;;;;;;7.00;5.90;;;12.80;99.90;;;;;;5014551;28;20229;-82
2023/11/08 11:35:56;;;;;;;14.20;6.20;;;13.20;99.90;;;;;;5016556;28;20325;-80
2023/11/08 11:38:27;;;;;;;10.55;5.15;;;13.10;99.90;;;;;;5024196;28;20250;-83
2023/11/08 11:41:20;;;;;;;8.82;5.10;;;13.00;99.90;;;;;;5022615;28;20209;-84
2023/11/08 11:43:52;;;;;;;9.93;5.95;;;12.70;99.90;;;;;;5006553;28;20197;-83
2023/11/08 11:46:22;;;;;;;7.43;4.90;;;12.60;99.90;;;;;;5026327;28;21640;-81
2023/11/08 11:49:04;;;;;;;8.40;4.95;;;12.50;99.90;;;;;;5015711;28;20234;-82
2023/11/08 11:51:31;;;;;;;7.80;5.10;;;12.60;99.90;;;;;;5015406;28;20201;-83
2023/11/08 11:53:58;;;;;;;7.13;4.22;;;12.70;99.90;;;;;;5010635;28;20291;-83
2023/11/08 11:56:25;;;;;;;9.85;5.80;;;12.60;99.90;;;;;;5009103;28;20225;-82
2023/11/08 11:58:52;;;;;;;13.73;5.70;;;12.50;99.90;;;;;;5021788;28;20201;-79
2023/11/08 12:01:22;;;;;;;8.68;5.90;;;12.30;99.90;;;;;;5034455;28;20195;-80
2023/11/08 12:03:48;;;;;;;7.43;4.13;;;12.30;99.90;;;;;;5033941;28;20219;-79
2023/11/08 12:06:15;;;;;;;7.25;3.88;;;12.30;99.90;;;;;;5027802;28;20188;-79
2023/11/08 12:08:42;;;;;;;8.10;3.80;;;12.30;99.90;;;;;;5032041;28;20219;-81
2023/11/08 12:11:13;;;;;;;8.82;3.35;;;12.10;99.90;;;;;;5021737;28;20185;-82
2023/11/08 12:13:50;;;;;;;10.77;3.20;;;12.10;99.90;;;;;;5032804;28;20283;-83
2023/11/08 12:16:17;;;;;;;8.73;3.10;;;12.10;99.90;;;;;;5026658;28;20203;-85
2023/11/08 12:18:46;;;;;;;14.50;3.05;;;12.00;99.90;;;;;;5022744;28;20308;-81
2023/11/08 12:21:15;;;;;;;7.60;3.58;;;12.20;99.90;;;;;;5019209;28;20247;-83
2023/11/08 12:23:44;;;;;;;7.55;2.95;;;12.20;99.90;;;;;;5033065;28;20207;-84
2023/11/08 12:26:17;;;;;;;4.45;2.97;;;12.30;99.90;;;;;;5029083;28;20205;-83
2023/11/08 12:28:45;;;;;;;10.75;4.38;;;12.40;99.90;;;;;;5038612;28;20278;-82
2023/11/08 12:31:14;;;;;;;9.38;8.48;;;12.40;99.90;;;;;;5036991;28;20201;-84
2023/11/08 12:33:41;;;;;;;5.72;2.67;;;12.40;99.90;;;;;;5044005;28;20191;-81
2023/11/08 12:36:17;;;;;;;6.05;2.60;;;12.50;99.90;;;;;;5036429;28;20192;-81
2023/11/08 12:38:48;;;;;;;8.35;2.70;;;12.50;99.90;;;;;;5040040;28;20211;-79
2023/11/08 12:41:17;;;;;;;5.95;3.17;;;12.40;99.90;;;;;;5040520;28;20211;-83
2023/11/08 12:44:04;;;;;;;6.60;3.17;;;12.50;99.90;;;;;;5042766;28;20215;-81